createdAt,value
2023-07-18T00:02:22.756Z,91.50
2023-07-18T00:04:51.050Z,91.60
2023-07-18T00:07:18.006Z,91.60
2023-07-18T00:09:45.040Z,91.80
2023-07-18T00:12:12.207Z,92.20
2023-07-18T00:14:39.138Z,92.30
2023-07-18T00:17:06.444Z,92.30
2023-07-18T00:19:34.708Z,92.40
2023-07-18T00:22:03.125Z,92.70
2023-07-18T00:24:30.264Z,92.90
2023-07-18T00:26:58.305Z,93.00
2023-07-18T00:29:25.403Z,93.10
2023-07-18T00:31:52.391Z,93.30
2023-07-18T00:34:19.354Z,93.40
2023-07-18T00:36:46.656Z,93.70
2023-07-18T00:39:15.017Z,93.90
2023-07-18T00:41:42.010Z,94.10
2023-07-18T00:44:09.083Z,94.00
2023-07-18T00:46:37.445Z,94.00
2023-07-18T00:49:04.734Z,94.20
2023-07-18T00:51:32.220Z,94.10
2023-07-18T00:54:01.285Z,94.30
2023-07-18T00:56:30.288Z,94.10
2023-07-18T00:58:57.515Z,93.90
2023-07-18T01:01:25.534Z,94.10
2023-07-18T01:03:54.211Z,94.30
2023-07-18T01:06:22.915Z,94.50
2023-07-18T01:08:49.874Z,94.70
2023-07-18T01:11:17.553Z,94.90
2023-07-18T01:13:46.016Z,95.20
2023-07-18T01:16:14.701Z,95.30
2023-07-18T01:18:42.016Z,95.60
2023-07-18T01:21:17.615Z,95.60
2023-07-18T01:23:46.619Z,95.40
2023-07-18T01:26:14.163Z,95.20
2023-07-18T01:28:41.845Z,95.20
2023-07-18T01:31:09.014Z,95.20
2023-07-18T01:33:36.229Z,95.20
2023-07-18T01:36:03.674Z,95.50
2023-07-18T01:38:31.994Z,95.70
2023-07-18T01:41:00.225Z,95.80
2023-07-18T01:43:27.287Z,95.80
2023-07-18T01:45:59.437Z,96.10
2023-07-18T01:48:29.007Z,96.40
2023-07-18T01:50:55.963Z,96.60
2023-07-18T01:53:27.299Z,96.90
2023-07-18T01:55:58.975Z,97.10
2023-07-18T01:58:26.110Z,97.20
2023-07-18T02:00:53.141Z,97.30
2023-07-18T02:03:20.160Z,97.30
2023-07-18T02:05:51.517Z,97.10
2023-07-18T02:08:18.544Z,96.90
2023-07-18T02:10:45.522Z,96.90
2023-07-18T02:13:13.847Z,97.10
2023-07-18T02:15:40.911Z,97.10
2023-07-18T02:18:07.869Z,97.30
2023-07-18T02:20:35.025Z,97.20
2023-07-18T02:23:02.710Z,97.30
2023-07-18T02:25:29.897Z,97.50
2023-07-18T02:27:58.145Z,98.10
2023-07-18T02:30:29.993Z,97.90
2023-07-18T02:32:58.487Z,98.10
2023-07-18T02:35:25.614Z,98.10
2023-07-18T02:37:52.529Z,98.20
2023-07-18T02:40:19.745Z,98.30
2023-07-18T02:42:46.736Z,98.30
2023-07-18T02:45:14.283Z,98.30
2023-07-18T02:47:42.829Z,98.30
2023-07-18T02:50:10.296Z,98.40
2023-07-18T02:52:37.583Z,98.40
2023-07-18T02:55:05.477Z,98.50
2023-07-18T02:57:32.886Z,98.60
2023-07-18T03:00:00.699Z,98.70
2023-07-18T03:02:30.101Z,98.80
2023-07-18T03:04:58.821Z,98.90
2023-07-18T03:07:25.811Z,99.00
2023-07-18T03:09:52.782Z,98.80
2023-07-18T03:12:22.375Z,98.90
2023-07-18T03:14:50.110Z,99.00
2023-07-18T03:17:18.258Z,99.00
2023-07-18T03:19:45.216Z,99.00
2023-07-18T03:22:14.449Z,99.10
2023-07-18T03:24:41.836Z,99.00
2023-07-18T03:27:08.975Z,99.00
2023-07-18T03:29:35.932Z,98.90
2023-07-18T03:32:03.023Z,99.20
2023-07-18T03:34:30.181Z,99.00
2023-07-18T03:36:57.282Z,99.00
2023-07-18T03:39:25.598Z,99.20
2023-07-18T03:41:52.659Z,99.10
2023-07-18T03:44:19.696Z,99.30
2023-07-18T03:46:46.891Z,99.40
2023-07-18T03:49:14.060Z,99.50
2023-07-18T03:51:41.136Z,99.60
2023-07-18T03:54:08.116Z,99.70
2023-07-18T03:56:37.546Z,99.70
2023-07-18T03:59:04.673Z,99.80
2023-07-18T04:01:31.760Z,99.90
2023-07-18T04:03:58.865Z,99.90
2023-07-18T04:06:26.022Z,99.90
2023-07-18T04:08:53.023Z,99.90
2023-07-18T04:11:20.156Z,99.90
2023-07-18T04:13:48.800Z,99.90
2023-07-18T04:16:15.786Z,99.90
2023-07-18T04:18:42.821Z,99.90
2023-07-18T04:21:09.832Z,99.90
2023-07-18T04:23:36.789Z,99.90
2023-07-18T04:26:04.533Z,99.90
2023-07-18T04:28:35.799Z,99.90
2023-07-18T04:31:04.603Z,99.90
2023-07-18T04:33:36.979Z,99.90
2023-07-18T04:36:08.145Z,99.90
2023-07-18T04:38:35.543Z,99.90
2023-07-18T04:41:04.147Z,99.90
2023-07-18T04:43:31.643Z,99.90
2023-07-18T04:45:58.695Z,99.90
2023-07-18T04:48:27.084Z,99.90
2023-07-18T04:50:59.421Z,99.90
2023-07-18T04:53:27.798Z,99.90
2023-07-18T04:55:56.696Z,99.90
2023-07-18T04:58:26.138Z,99.90
2023-07-18T05:00:55.927Z,99.90
2023-07-18T05:03:23.284Z,99.90
2023-07-18T05:05:51.650Z,99.90
2023-07-18T05:08:19.154Z,99.90
2023-07-18T05:10:46.349Z,99.90
2023-07-18T05:13:13.426Z,99.90
2023-07-18T05:15:43.191Z,99.90
2023-07-18T05:18:10.712Z,99.90
2023-07-18T05:20:37.849Z,99.90
2023-07-18T05:23:06.308Z,99.90
2023-07-18T05:25:34.483Z,99.90
2023-07-18T05:28:01.637Z,99.90
2023-07-18T05:30:28.692Z,99.90
2023-07-18T05:32:55.896Z,99.90
2023-07-18T05:35:23.022Z,99.90
2023-07-18T05:37:49.960Z,99.90
2023-07-18T05:40:21.753Z,99.90
2023-07-18T05:42:49.679Z,99.90
2023-07-18T05:45:16.821Z,99.90
2023-07-18T05:47:44.043Z,99.90
2023-07-18T05:50:11.668Z,99.90
2023-07-18T05:52:39.584Z,99.90
2023-07-18T05:55:08.676Z,99.90
2023-07-18T05:57:37.448Z,99.90
2023-07-18T06:00:07.356Z,99.90
2023-07-18T06:02:39.420Z,99.90
2023-07-18T06:05:09.332Z,99.90
2023-07-18T06:07:36.419Z,99.90
2023-07-18T06:10:04.639Z,99.90
2023-07-18T06:12:31.753Z,99.90
2023-07-18T06:15:00.185Z,99.90
2023-07-18T06:17:27.200Z,99.90
2023-07-18T06:19:54.192Z,99.90
2023-07-18T06:22:22.171Z,99.90
2023-07-18T06:24:49.197Z,99.90
2023-07-18T06:27:16.142Z,99.90
2023-07-18T06:29:45.313Z,99.90
2023-07-18T06:32:13.744Z,99.90
2023-07-18T06:34:41.890Z,99.90
2023-07-18T06:37:11.541Z,99.90
2023-07-18T06:39:38.855Z,99.90
2023-07-18T06:42:07.546Z,99.90
2023-07-18T06:44:34.677Z,99.90
2023-07-18T06:47:02.253Z,99.90
2023-07-18T06:49:30.725Z,99.90
2023-07-18T06:51:57.673Z,99.60
2023-07-18T06:54:24.732Z,99.60
2023-07-18T06:56:51.765Z,99.90
2023-07-18T06:59:18.724Z,99.20
2023-07-18T07:01:45.700Z,99.40
2023-07-18T07:04:12.782Z,99.00
2023-07-18T07:06:42.749Z,98.80
2023-07-18T07:09:11.137Z,98.10
2023-07-18T07:11:38.121Z,98.00
2023-07-18T07:14:06.204Z,98.10
2023-07-18T07:16:34.484Z,94.80
2023-07-18T07:19:01.594Z,96.10
2023-07-18T07:21:28.537Z,95.30
2023-07-18T07:23:58.119Z,95.30
2023-07-18T07:26:25.596Z,95.80
2023-07-18T07:28:52.650Z,95.10
2023-07-18T07:31:19.967Z,94.30
2023-07-18T07:33:47.292Z,94.20
2023-07-18T07:36:14.678Z,95.40
2023-07-18T07:38:41.703Z,93.50
2023-07-18T07:41:10.032Z,93.70
2023-07-18T07:43:37.017Z,92.80
2023-07-18T07:46:04.344Z,93.60
2023-07-18T07:48:31.333Z,93.80
2023-07-18T07:50:59.566Z,92.70
2023-07-18T07:53:26.726Z,92.80
2023-07-18T07:55:53.775Z,93.50
2023-07-18T07:58:22.058Z,93.00
2023-07-18T08:00:49.164Z,92.90
2023-07-18T08:03:16.086Z,93.10
2023-07-18T08:05:43.105Z,92.70
2023-07-18T08:08:11.275Z,92.00
2023-07-18T08:10:38.359Z,91.40
2023-07-18T08:13:05.357Z,92.40
2023-07-18T08:15:33.668Z,92.10
2023-07-18T08:18:01.365Z,92.30
2023-07-18T08:20:29.024Z,91.70
2023-07-18T08:22:56.083Z,91.90
2023-07-18T08:25:23.158Z,91.10
2023-07-18T08:27:50.410Z,91.50
2023-07-18T08:30:17.519Z,91.10
2023-07-18T08:32:45.901Z,90.20
2023-07-18T08:35:13.082Z,90.60
2023-07-18T08:37:42.695Z,91.10
2023-07-18T08:40:13.867Z,91.10
2023-07-18T08:42:41.227Z,90.90
2023-07-18T08:45:11.791Z,91.00
2023-07-18T08:47:39.567Z,90.40
2023-07-18T08:50:11.853Z,89.70
2023-07-18T08:52:39.373Z,88.50
2023-07-18T08:55:07.315Z,87.10
2023-07-18T08:57:34.729Z,87.90
2023-07-18T09:00:05.524Z,89.00
2023-07-18T09:02:32.615Z,88.40
2023-07-18T09:04:59.642Z,85.60
2023-07-18T09:07:28.789Z,86.80
2023-07-18T09:09:56.541Z,85.80
2023-07-18T09:12:23.526Z,86.10
2023-07-18T09:14:57.038Z,84.60
2023-07-18T09:17:24.245Z,84.80
2023-07-18T09:19:51.342Z,85.00
2023-07-18T09:22:18.464Z,84.80
2023-07-18T09:24:49.197Z,83.30
2023-07-18T09:27:18.552Z,83.20
2023-07-18T09:29:48.743Z,84.40
2023-07-18T09:32:17.217Z,83.80
2023-07-18T09:34:52.072Z,83.10
2023-07-18T09:37:19.051Z,84.10
2023-07-18T09:39:47.864Z,83.60
2023-07-18T09:42:17.488Z,83.70
2023-07-18T09:47:18.873Z,80.80
2023-07-18T09:49:46.329Z,79.50
2023-07-18T09:52:15.889Z,79.60
2023-07-18T09:54:44.741Z,79.40
2023-07-18T09:57:17.224Z,80.20
2023-07-18T09:59:49.275Z,80.40
2023-07-18T10:02:16.354Z,79.00
2023-07-18T10:04:45.120Z,77.70
2023-07-18T10:07:12.413Z,78.20
2023-07-18T10:09:40.267Z,78.20
2023-07-18T10:12:08.776Z,78.80
2023-07-18T10:14:51.853Z,78.70
2023-07-18T10:17:36.691Z,79.20
2023-07-18T10:20:11.432Z,79.60
2023-07-18T10:22:47.469Z,79.60
2023-07-18T10:25:15.180Z,81.10
2023-07-18T10:27:44.735Z,80.80
2023-07-18T10:30:16.900Z,82.60
2023-07-18T10:32:53.926Z,83.00
2023-07-18T10:35:23.142Z,82.90
2023-07-18T10:37:53.311Z,82.70
2023-07-18T10:40:38.118Z,81.70
2023-07-18T10:43:06.508Z,81.50
2023-07-18T10:45:38.293Z,81.30
2023-07-18T10:48:13.206Z,80.80
2023-07-18T10:50:40.450Z,80.40
2023-07-18T10:53:11.862Z,79.50
2023-07-18T10:55:38.959Z,80.80
2023-07-18T10:58:11.506Z,79.50
2023-07-18T11:00:41.757Z,76.20
2023-07-18T11:03:18.497Z,77.70
2023-07-18T11:05:47.750Z,75.60
2023-07-18T11:08:23.699Z,75.80
2023-07-18T11:10:54.910Z,75.50
2023-07-18T11:13:26.931Z,76.60
2023-07-18T11:15:57.863Z,77.30
2023-07-18T11:18:24.920Z,78.10
2023-07-18T11:20:53.875Z,78.70
2023-07-18T11:23:21.269Z,79.40
2023-07-18T11:25:48.380Z,79.70
2023-07-18T11:28:16.719Z,80.00
2023-07-18T11:30:44.993Z,80.60
2023-07-18T11:33:14.768Z,81.60
2023-07-18T11:35:46.818Z,81.90
2023-07-18T11:38:24.262Z,82.60
2023-07-18T11:40:52.052Z,84.60
2023-07-18T11:43:19.604Z,88.10
2023-07-18T11:45:47.674Z,91.30
2023-07-18T11:48:20.472Z,91.60
2023-07-18T11:50:49.270Z,93.20
2023-07-18T11:53:26.526Z,92.40
2023-07-18T11:55:54.616Z,92.50
2023-07-18T11:58:21.605Z,92.00
2023-07-18T12:00:48.683Z,93.60
2023-07-18T12:03:17.053Z,92.10
2023-07-18T12:05:44.518Z,93.10
2023-07-18T12:08:11.533Z,92.70
2023-07-18T12:10:38.792Z,92.40
2023-07-18T12:13:05.780Z,92.20
2023-07-18T12:15:33.132Z,92.40
2023-07-18T12:18:01.205Z,92.40
2023-07-18T12:20:29.618Z,92.70
2023-07-18T12:22:56.662Z,92.20
2023-07-18T12:25:23.886Z,91.20
2023-07-18T12:27:50.895Z,91.30
2023-07-18T12:30:17.999Z,90.50
2023-07-18T12:32:45.506Z,90.00
2023-07-18T12:35:12.640Z,90.10
2023-07-18T12:37:41.082Z,90.20
2023-07-18T12:40:09.022Z,88.80
2023-07-18T12:42:36.062Z,88.10
2023-07-18T12:45:03.213Z,86.60
2023-07-18T12:47:30.278Z,86.10
2023-07-18T12:49:57.551Z,85.80
2023-07-18T12:52:24.703Z,84.60
2023-07-18T12:54:53.029Z,85.10
2023-07-18T12:57:20.009Z,85.20
2023-07-18T12:59:47.459Z,84.70
2023-07-18T13:02:14.677Z,83.10
2023-07-18T13:04:41.988Z,83.40
2023-07-18T13:07:09.055Z,83.90
2023-07-18T13:09:36.090Z,84.20
2023-07-18T13:12:04.869Z,82.50
2023-07-18T13:14:31.976Z,83.90
2023-07-18T13:16:59.019Z,84.30
2023-07-18T13:19:26.252Z,84.60
2023-07-18T13:21:53.221Z,83.20
2023-07-18T13:24:20.458Z,85.10
2023-07-18T13:26:47.618Z,85.10
2023-07-18T13:29:15.926Z,84.70
2023-07-18T13:31:43.090Z,84.00
2023-07-18T13:34:12.649Z,85.10
2023-07-18T13:36:41.519Z,84.90
2023-07-18T13:39:08.477Z,83.70
2023-07-18T13:41:35.570Z,83.20
2023-07-18T13:44:04.374Z,83.50
2023-07-18T13:46:33.112Z,81.20
2023-07-18T13:49:00.384Z,78.50
2023-07-18T13:51:27.467Z,78.40
2023-07-18T13:53:54.517Z,77.90
2023-07-18T13:56:21.979Z,77.70
2023-07-18T13:58:49.304Z,79.10
2023-07-18T14:01:16.293Z,79.20
2023-07-18T14:03:44.736Z,78.70
2023-07-18T14:06:11.751Z,79.60
2023-07-18T14:08:39.381Z,79.80
2023-07-18T14:11:06.610Z,81.10
2023-07-18T14:13:33.807Z,80.90
2023-07-18T14:16:01.019Z,81.60
2023-07-18T14:18:28.053Z,81.80
2023-07-18T14:20:56.588Z,80.90
2023-07-18T14:23:23.601Z,81.70
2023-07-18T14:25:50.558Z,83.10
2023-07-18T14:28:18.883Z,83.70
2023-07-18T14:30:45.991Z,85.10
2023-07-18T14:33:15.072Z,82.80
2023-07-18T14:35:42.420Z,83.70
2023-07-18T14:38:10.878Z,83.10
2023-07-18T14:40:38.142Z,82.60
2023-07-18T14:43:08.632Z,83.60
2023-07-18T14:45:36.617Z,84.80
2023-07-18T14:48:04.122Z,84.20
2023-07-18T14:50:31.376Z,85.20
2023-07-18T14:52:58.836Z,83.30
2023-07-18T14:55:27.289Z,84.40
2023-07-18T14:57:54.370Z,83.60
2023-07-18T15:00:21.852Z,83.90
2023-07-18T15:02:49.513Z,82.80
2023-07-18T15:05:16.598Z,83.60
2023-07-18T15:07:43.662Z,83.70
2023-07-18T15:10:11.949Z,81.60
2023-07-18T15:12:41.757Z,82.20
2023-07-18T15:15:10.326Z,81.80
2023-07-18T15:17:42.053Z,81.00
2023-07-18T15:20:10.684Z,81.10
2023-07-18T15:22:37.973Z,81.50
2023-07-18T15:25:06.413Z,81.30
2023-07-18T15:27:33.842Z,81.80
2023-07-18T15:30:02.611Z,81.60
2023-07-18T15:32:30.211Z,81.60
2023-07-18T15:34:57.323Z,82.20
2023-07-18T15:37:25.680Z,81.00
2023-07-18T15:39:52.648Z,80.70
2023-07-18T15:42:20.197Z,80.90
2023-07-18T15:44:48.120Z,80.10
2023-07-18T15:47:16.556Z,81.10
2023-07-18T15:49:43.501Z,81.40
2023-07-18T15:52:10.504Z,82.40
2023-07-18T15:54:37.751Z,82.00
2023-07-18T15:57:06.470Z,81.90
2023-07-18T15:59:33.565Z,82.40
2023-07-18T16:02:00.583Z,81.60
2023-07-18T16:04:28.928Z,81.90
2023-07-18T16:06:55.946Z,82.70
2023-07-18T16:09:29.546Z,82.80
2023-07-18T16:11:57.253Z,81.90
2023-07-18T16:14:25.222Z,82.60
2023-07-18T16:16:52.314Z,82.90
2023-07-18T16:19:19.525Z,82.70
2023-07-18T16:21:47.831Z,83.40
2023-07-18T16:24:15.116Z,83.40
2023-07-18T16:26:42.205Z,83.70
2023-07-18T16:29:09.180Z,84.00
2023-07-18T16:31:37.095Z,84.30
2023-07-18T16:34:04.111Z,84.80
2023-07-18T16:36:31.146Z,84.30
2023-07-18T16:38:59.374Z,84.40
2023-07-18T16:41:26.332Z,84.10
2023-07-18T16:46:21.211Z,83.80
2023-07-18T16:48:48.997Z,84.00
2023-07-18T16:51:16.098Z,85.00
2023-07-18T16:53:43.132Z,84.90
2023-07-18T16:56:12.962Z,84.90
2023-07-18T16:58:41.958Z,85.10
2023-07-18T17:01:09.032Z,85.30
2023-07-18T17:03:36.023Z,85.50
2023-07-18T17:06:03.025Z,85.90
2023-07-18T17:08:31.306Z,85.20
2023-07-18T17:10:58.416Z,85.60
2023-07-18T17:13:26.840Z,85.50
2023-07-18T17:15:53.939Z,85.70
2023-07-18T17:18:21.196Z,85.90
2023-07-18T17:20:48.251Z,86.20
2023-07-18T17:23:15.323Z,86.30
2023-07-18T17:25:42.371Z,86.80
2023-07-18T17:28:09.384Z,86.90
2023-07-18T17:30:37.807Z,86.90
2023-07-18T17:33:05.874Z,87.40
2023-07-18T17:35:33.313Z,87.80
2023-07-18T17:38:00.244Z,87.90
2023-07-18T17:40:27.221Z,88.20
2023-07-18T17:42:54.225Z,88.20
2023-07-18T17:45:23.176Z,88.70
2023-07-18T17:47:51.540Z,90.00
2023-07-18T17:50:18.576Z,91.10
2023-07-18T17:52:45.677Z,91.50
2023-07-18T17:55:12.816Z,91.60
2023-07-18T17:57:40.715Z,91.90
2023-07-18T18:00:08.789Z,91.70
2023-07-18T18:02:36.182Z,92.20
2023-07-18T18:05:45.006Z,92.80
2023-07-18T18:08:13.913Z,92.70
2023-07-18T18:10:41.478Z,92.00
2023-07-18T18:13:08.570Z,92.70
2023-07-18T18:15:35.549Z,92.30
2023-07-18T18:18:02.643Z,92.50
2023-07-18T18:20:31.025Z,92.40
2023-07-18T18:22:58.837Z,92.80
2023-07-18T18:25:26.078Z,93.00
2023-07-18T18:27:53.656Z,93.40
2023-07-18T18:30:20.614Z,93.60
2023-07-18T18:32:47.541Z,93.60
2023-07-18T18:35:14.470Z,93.10
2023-07-18T18:37:48.038Z,93.70
2023-07-18T18:40:17.200Z,93.50
2023-07-18T18:42:44.388Z,93.50
2023-07-18T18:45:11.560Z,93.60
2023-07-18T18:47:39.894Z,94.10
2023-07-18T18:50:08.038Z,94.30
2023-07-18T18:52:35.720Z,94.60
2023-07-18T18:55:17.651Z,95.00
2023-07-18T18:57:47.136Z,95.40
2023-07-18T19:00:14.417Z,95.80
2023-07-18T19:02:43.606Z,96.20
2023-07-18T19:05:11.510Z,96.80
2023-07-18T19:07:38.881Z,97.00
2023-07-18T19:10:07.951Z,97.40
2023-07-18T19:12:35.977Z,97.80
2023-07-18T19:15:03.673Z,98.00
2023-07-18T19:17:30.749Z,98.10
2023-07-18T19:19:57.744Z,98.10
2023-07-18T19:22:24.773Z,98.70
2023-07-18T19:24:52.153Z,99.40
2023-07-18T19:27:20.538Z,99.90
2023-07-18T19:29:47.853Z,99.90
2023-07-18T19:32:14.874Z,99.90
2023-07-18T19:34:45.075Z,99.90
2023-07-18T19:37:12.143Z,99.90
2023-07-18T19:39:39.140Z,99.90
2023-07-18T19:42:07.099Z,99.90
2023-07-18T19:44:35.664Z,99.90
2023-07-18T19:47:02.837Z,99.90
2023-07-18T19:49:30.055Z,99.90
2023-07-18T19:51:57.816Z,99.90
2023-07-18T19:54:24.988Z,99.90
2023-07-18T19:56:52.156Z,99.90
2023-07-18T19:59:19.404Z,99.90
2023-07-18T20:01:47.885Z,99.90
2023-07-18T20:04:15.084Z,99.90
2023-07-18T20:06:42.311Z,99.90
2023-07-18T20:09:09.332Z,99.90
2023-07-18T20:11:36.295Z,99.90
2023-07-18T20:14:03.418Z,99.90
2023-07-18T20:16:31.364Z,99.90
2023-07-18T20:19:02.493Z,99.90
2023-07-18T20:21:30.258Z,99.90
2023-07-18T20:23:58.202Z,99.90
2023-07-18T20:26:25.597Z,99.90
2023-07-18T20:28:52.593Z,99.90
2023-07-18T20:31:20.463Z,99.90
2023-07-18T20:33:48.341Z,99.90
2023-07-18T20:36:17.132Z,99.90
2023-07-18T20:38:44.219Z,99.90
2023-07-18T20:41:11.217Z,99.90
2023-07-18T20:43:38.275Z,99.90
2023-07-18T20:46:05.610Z,99.90
2023-07-18T20:48:35.425Z,99.90
2023-07-18T20:51:02.419Z,99.90
2023-07-18T20:53:31.066Z,99.90
2023-07-18T20:55:58.259Z,99.90
2023-07-18T20:58:25.318Z,99.90
2023-07-18T21:00:52.337Z,99.90
2023-07-18T21:03:19.363Z,99.90
2023-07-18T21:05:49.872Z,99.90
2023-07-18T21:08:18.540Z,99.90
2023-07-18T21:10:47.040Z,99.90
2023-07-18T21:13:14.169Z,99.90
2023-07-18T21:15:41.875Z,99.90
2023-07-18T21:18:08.900Z,99.90
2023-07-18T21:20:36.027Z,99.90
2023-07-18T21:23:04.931Z,99.90
2023-07-18T21:25:32.326Z,99.90
2023-07-18T21:28:00.645Z,99.90
2023-07-18T21:30:27.667Z,99.90
2023-07-18T21:32:54.961Z,99.90
2023-07-18T21:35:25.137Z,99.90
2023-07-18T21:37:52.234Z,99.90
2023-07-18T21:40:19.934Z,99.90
2023-07-18T21:42:48.024Z,99.90
2023-07-18T21:45:16.688Z,99.90
2023-07-18T21:47:44.133Z,99.90
2023-07-18T21:50:11.402Z,99.90
2023-07-18T21:52:38.443Z,99.90
2023-07-18T21:55:07.008Z,99.90
2023-07-18T21:57:34.046Z,99.90
2023-07-18T22:00:01.140Z,99.90
2023-07-18T22:02:36.212Z,99.90
2023-07-18T22:05:04.262Z,99.90
2023-07-18T22:07:31.596Z,99.90
2023-07-18T22:09:59.375Z,99.90
2023-07-18T22:12:26.424Z,99.90
2023-07-18T22:14:53.352Z,99.90
2023-07-18T22:17:20.380Z,99.90
2023-07-18T22:19:48.728Z,99.90
2023-07-18T22:22:15.952Z,99.90
2023-07-18T22:24:42.954Z,99.90
2023-07-18T22:27:10.055Z,99.90
2023-07-18T22:29:37.295Z,99.90
2023-07-18T22:32:05.118Z,99.90
2023-07-18T22:34:32.272Z,99.90
2023-07-18T22:37:00.674Z,99.90
2023-07-18T22:39:35.542Z,99.90
2023-07-18T22:42:15.225Z,99.90
2023-07-18T22:45:31.705Z,99.90
2023-07-18T22:47:58.694Z,99.90
2023-07-18T22:50:25.696Z,99.90
2023-07-18T22:52:53.959Z,99.90
2023-07-18T22:55:20.944Z,99.90
2023-07-18T22:57:47.909Z,99.90
2023-07-18T23:00:15.366Z,99.90
2023-07-18T23:02:43.566Z,99.90
2023-07-18T23:05:10.559Z,99.90
2023-07-18T23:07:39.379Z,99.90
2023-07-18T23:10:08.767Z,99.90
2023-07-18T23:12:36.194Z,99.90
2023-07-18T23:15:03.189Z,99.90
2023-07-18T23:17:30.210Z,99.90
2023-07-18T23:19:57.132Z,99.90
2023-07-18T23:22:24.004Z,99.90
2023-07-18T23:24:50.931Z,99.90
2023-07-18T23:27:19.178Z,99.90
2023-07-18T23:29:46.081Z,99.90
2023-07-18T23:32:13.079Z,99.90
2023-07-18T23:34:40.071Z,99.90
2023-07-18T23:37:07.285Z,99.90
2023-07-18T23:39:34.537Z,99.90
2023-07-18T23:42:01.573Z,99.90
2023-07-18T23:44:29.856Z,99.90
2023-07-18T23:46:56.790Z,99.90
2023-07-18T23:49:23.729Z,99.90
2023-07-18T23:51:50.717Z,99.90
2023-07-18T23:54:17.691Z,99.90
2023-07-18T23:56:44.725Z,99.90
2023-07-18T23:59:11.670Z,99.90
